Time;durP1;ratioP1;P1;durP2;ratioP2;P2;SDS_P1;SDS_P2;PMS_P1;PMS_P2;Temp;Humidity;BMP_temperature;BMP_pressure;BME280_temperature;BME280_humidity;BME280_pressure;Samples;Min_cycle;Max_cycle;Signal;HPM_P1;HPM_P2
2022/02/02 00:02:10;;;;;;;5.27;1.00;;;;;;;-2.29;59.75;98671.30;1717201;81;20921;-52
2022/02/02 00:04:32;;;;;;;5.40;1.50;;;;;;;-2.34;59.81;98662.59;1756055;79;21100;-53
2022/02/02 00:07:31;;;;;;;1.70;0.97;;;;;;;-2.37;59.84;98667.45;1750852;79;20885;-51
2022/02/02 00:09:50;;;;;;;6.30;1.40;;;;;;;-2.40;59.94;98669.28;1747625;79;21529;-51
2022/02/02 00:18:11;;;;;;;1.40;0.77;;;;;;;-2.46;60.11;98667.58;1720160;81;21059;-51
2022/02/02 00:20:15;;;;;;;4.43;1.43;;;;;;;-2.46;60.17;98668.89;1721658;80;20984;-50
2022/02/02 00:22:33;;;;;;;4.07;1.23;;;;;;;-2.45;60.21;98660.09;1719067;81;20881;-51
2022/02/02 00:25:05;;;;;;;4.70;1.10;;;;;;;-2.43;60.27;98660.08;1717699;81;20972;-50
2022/02/02 00:27:24;;;;;;;3.00;1.10;;;;;;;-2.44;60.29;98653.94;1752183;79;21424;-50
2022/02/02 00:29:56;;;;;;;7.33;2.53;;;;;;;-2.43;60.28;98651.73;1715311;81;22599;-50
2022/02/02 00:32:45;;;;;;;8.70;6.20;;;;;;;-2.43;60.28;98646.46;1734379;81;21127;-52
2022/02/02 00:34:47;;;;;;;9.00;6.13;;;;;;;-2.42;60.29;98640.75;1723938;81;21473;-51
2022/02/02 00:37:15;;;;;;;4.60;2.27;;;;;;;-2.43;60.24;98628.46;1730529;81;21053;-51
2022/02/02 00:39:42;;;;;;;5.60;1.40;;;;;;;-2.44;60.21;98625.40;1731735;81;21091;-51
2022/02/02 00:42:09;;;;;;;5.53;1.57;;;;;;;-2.44;60.16;98636.81;1732022;81;21457;-50
2022/02/02 00:44:41;;;;;;;5.30;1.57;;;;;;;-2.46;60.12;98631.13;1729841;81;21104;-51
2022/02/02 00:47:06;;;;;;;6.77;2.43;;;;;;;-2.49;60.17;98632.51;1730444;81;21598;-52
2022/02/02 00:49:32;;;;;;;8.17;2.07;;;;;;;-2.51;60.16;98635.16;1752684;79;21437;-51
2022/02/02 00:52:00;;;;;;;2.40;1.30;;;;;;;-2.51;60.22;98629.02;1752436;79;21051;-51
2022/02/02 00:54:29;;;;;;;5.73;1.50;;;;;;;-2.51;60.25;98624.62;1746477;79;21387;-52
2022/02/02 00:56:55;;;;;;;4.30;2.00;;;;;;;-2.53;60.26;98622.89;1751300;79;22365;-50
2022/02/02 00:59:25;;;;;;;6.73;1.60;;;;;;;-2.52;60.32;98631.22;1751975;79;21040;-52
2022/02/02 01:01:51;;;;;;;4.37;1.40;;;;;;;-2.54;60.33;98630.36;1748782;80;21483;-52
2022/02/02 01:04:18;;;;;;;5.43;1.73;;;;;;;-2.56;60.28;98622.52;1746733;80;21452;-52
2022/02/02 01:07:12;;;;;;;4.23;1.27;;;;;;;-2.58;60.21;98619.46;1752405;80;21928;-53
2022/02/02 01:09:23;;;;;;;3.47;1.30;;;;;;;-2.61;60.17;98621.69;1747269;80;21309;-52
2022/02/02 01:17:16;;;;;;;4.23;1.33;;;;;;;-2.74;60.09;98607.83;1734156;81;21116;-51
2022/02/02 01:29:41;;;;;;;4.67;1.60;;;;;;;-2.93;60.08;98589.64;1739101;80;21102;-51
2022/02/02 01:32:07;;;;;;;5.83;1.37;;;;;;;-2.98;60.02;98585.77;1735486;80;21701;-51
2022/02/02 01:34:33;;;;;;;4.80;2.10;;;;;;;-3.02;60.04;98588.44;1706804;83;21511;-51
2022/02/02 01:37:00;;;;;;;4.30;2.27;;;;;;;-3.07;60.03;98585.44;1676865;83;21604;-53
2022/02/02 01:39:30;;;;;;;8.97;2.17;;;;;;;-3.10;60.08;98584.15;1679338;84;21191;-53
2022/02/02 01:41:58;;;;;;;4.07;2.03;;;;;;;-3.14;60.07;98579.80;1691015;83;21126;-51
2022/02/02 01:44:40;;;;;;;4.87;1.67;;;;;;;-3.14;60.08;98577.61;1693748;84;21078;-52
2022/02/02 01:47:00;;;;;;;3.52;1.55;;;;;;;-3.17;60.05;98573.28;1689555;84;20997;-51
2022/02/02 01:54:59;;;;;;;5.83;2.80;;;;;;;-3.22;60.03;98574.20;1688008;83;20497;-51
2022/02/02 01:59:52;;;;;;;4.00;2.27;;;;;;;-3.28;60.07;98565.08;1683303;84;21640;-52
2022/02/02 02:02:18;;;;;;;4.57;2.23;;;;;;;-3.30;60.04;98562.45;1681392;84;21395;-52
2022/02/02 02:04:46;;;;;;;5.13;1.33;;;;;;;-3.32;60.08;98567.33;1681458;84;21089;-51
2022/02/02 02:07:13;;;;;;;8.77;4.60;;;;;;;-3.34;60.08;98553.31;1679757;84;21096;-50
2022/02/02 02:09:40;;;;;;;6.90;2.40;;;;;;;-3.36;60.09;98553.77;1681823;84;21975;-52
2022/02/02 02:12:08;;;;;;;6.10;1.73;;;;;;;-3.38;60.09;98555.09;1680417;83;21191;-51
2022/02/02 02:14:55;;;;;;;6.87;2.10;;;;;;;-3.39;60.07;98551.16;1669265;84;21002;-51
2022/02/02 02:17:22;;;;;;;6.60;2.20;;;;;;;-3.43;60.09;98541.14;1661042;85;21221;-50
2022/02/02 02:19:49;;;;;;;5.00;1.87;;;;;;;-3.46;60.08;98546.42;1686176;83;21500;-50
2022/02/02 02:22:26;;;;;;;7.60;1.50;;;;;;;-3.50;60.13;98538.16;1678820;83;21139;-49
2022/02/02 02:24:52;;;;;;;4.93;1.30;;;;;;;-3.55;60.14;98534.25;1636158;86;21140;-51
2022/02/02 02:27:21;;;;;;;7.43;1.37;;;;;;;-3.58;60.21;98537.37;1683406;84;20960;-49
2022/02/02 02:29:59;;;;;;;7.80;1.83;;;;;;;-3.61;60.33;98540.03;1718719;82;21426;-51
2022/02/02 02:57:02;;;;;;;9.03;2.35;;;;;;;-3.96;61.10;98519.37;1721794;82;20906;-51
2022/02/02 02:59:38;;;;;;;12.03;3.00;;;;;;;-4.01;61.20;98507.60;1720634;82;20893;-49
2022/02/02 03:34:52;;;;;;;5.03;2.07;;;;;;;-4.26;61.99;98508.72;1716268;82;21608;-49
2022/02/02 03:49:26;;;;;;;7.40;1.52;;;;;;;-4.28;62.12;98513.11;1718303;82;20890;-51
2022/02/02 03:58:23;;;;;;;4.27;1.30;;;;;;;-4.44;62.42;98501.88;1718985;82;21330;-50
2022/02/02 04:01:22;;;;;;;7.57;1.53;;;;;;;-4.47;62.45;98498.39;1713016;82;22396;-50
2022/02/02 04:03:36;;;;;;;6.70;1.90;;;;;;;-4.48;62.56;98504.52;1703816;82;21471;-50
2022/02/02 04:05:54;;;;;;;8.37;1.20;;;;;;;-4.49;62.64;98508.03;1712016;82;22279;-50
2022/02/02 04:08:26;;;;;;;7.40;1.60;;;;;;;-4.49;62.62;98515.47;1713773;82;21096;-51
2022/02/02 04:10:47;;;;;;;5.80;1.70;;;;;;;-4.49;62.66;98517.22;1712502;82;21495;-49
2022/02/02 04:38:33;;;;;;;;;;;;;;;-4.54;62.98;98508.08;1731658;81;21001;-51
2022/02/02 04:51:59;;;;;;;6.00;1.70;;;;;;;-4.58;63.04;98503.72;1727616;81;21063;-50
2022/02/02 05:07:01;;;;;;;32.77;18.87;;;;;;;-4.59;63.17;98501.53;1683833;83;21058;-50
2022/02/02 05:15:25;;;;;;;9.63;2.57;;;;;;;-4.58;63.11;98496.72;1676419;83;21556;-50
2022/02/02 05:20:18;;;;;;;4.53;1.67;;;;;;;-4.58;63.15;98502.41;1683967;84;22416;-50
2022/02/02 05:29:05;;;;;;;6.43;1.10;;;;;;;-4.60;63.14;98506.83;1713408;82;21648;-50
2022/02/02 05:41:50;;;;;;;4.20;0.98;;;;;;;-4.63;63.32;98509.02;1715918;82;22596;-50
2022/02/02 05:44:17;;;;;;;5.93;1.10;;;;;;;-4.64;63.39;98507.28;1715717;82;21438;-50
2022/02/02 05:49:37;;;;;;;5.15;1.30;;;;;;;-4.60;63.42;98509.45;1719532;82;21123;-50
2022/02/02 05:51:50;;;;;;;5.40;1.60;;;;;;;-4.58;63.40;98515.09;1710909;82;21083;-50
2022/02/02 05:54:17;;;;;;;9.00;1.10;;;;;;;-4.55;63.37;98522.09;1714706;82;21151;-50
2022/02/02 05:56:52;;;;;;;9.53;4.10;;;;;;;-4.52;63.36;98527.77;1719661;82;20898;-50
2022/02/02 05:59:23;;;;;;;35.43;20.13;;;;;;;-4.50;63.34;98520.73;1715763;82;20911;-50
2022/02/02 06:01:52;;;;;;;8.67;3.77;;;;;;;-4.47;63.29;98518.09;1719856;81;20890;-50
2022/02/02 06:04:27;;;;;;;6.43;2.03;;;;;;;-4.43;63.19;98518.50;1723646;82;22158;-51
2022/02/02 06:06:55;;;;;;;7.97;1.50;;;;;;;-4.38;63.19;98522.83;1720346;82;21890;-50
2022/02/02 06:09:32;;;;;;;4.70;1.40;;;;;;;-4.35;63.16;98528.51;1710838;82;20921;-50
2022/02/02 06:11:53;;;;;;;11.50;3.60;;;;;;;-4.31;63.09;98527.58;1718692;82;20857;-51
2022/02/02 06:14:25;;;;;;;5.97;1.63;;;;;;;-4.28;63.07;98528.88;1725321;81;20901;-50
2022/02/02 06:16:54;;;;;;;4.77;1.77;;;;;;;-4.27;63.00;98517.48;1731892;81;20905;-50
2022/02/02 06:19:23;;;;;;;7.40;1.27;;;;;;;-4.24;63.00;98518.75;1733173;81;21065;-50
2022/02/02 06:22:03;;;;;;;9.40;1.70;;;;;;;-4.20;62.95;98521.80;1732629;81;20846;-51
2022/02/02 06:24:32;;;;;;;6.23;1.47;;;;;;;-4.17;62.84;98511.27;1732643;81;21367;-50
2022/02/02 06:27:03;;;;;;;9.00;1.77;;;;;;;-4.13;62.74;98511.65;1734308;81;21530;-50
2022/02/02 06:29:30;;;;;;;11.93;1.47;;;;;;;-4.09;62.75;98517.77;1730482;81;21186;-50
2022/02/02 06:31:57;;;;;;;4.23;1.30;;;;;;;-4.04;62.66;98507.62;1731220;81;21569;-50
2022/02/02 06:34:23;;;;;;;4.23;1.33;;;;;;;-3.99;62.56;98509.74;1731220;81;20965;-50
2022/02/02 06:36:51;;;;;;;10.10;6.10;;;;;;;-3.92;62.45;98511.45;1730712;81;20961;-51
2022/02/02 06:39:17;;;;;;;5.80;2.23;;;;;;;-3.85;62.36;98514.44;1728687;81;21078;-51
2022/02/02 06:41:43;;;;;;;4.40;1.20;;;;;;;-3.79;62.17;98509.98;1729524;81;21080;-51
2022/02/02 06:44:10;;;;;;;7.07;1.40;;;;;;;-3.73;62.09;98508.16;1729186;81;21100;-50
2022/02/02 06:46:39;;;;;;;5.10;1.40;;;;;;;-3.69;61.92;98511.63;1724466;81;21051;-50
2022/02/02 06:49:04;;;;;;;7.63;1.47;;;;;;;-3.66;61.80;98511.17;1732477;81;20902;-50
2022/02/02 06:51:36;;;;;;;7.73;6.93;;;;;;;-3.61;61.69;98509.34;1735046;81;20878;-50
2022/02/02 06:54:07;;;;;;;9.03;4.87;;;;;;;-3.55;61.59;98512.33;1732988;81;20873;-50
2022/02/02 06:59:42;;;;;;;3.67;1.20;;;;;;;-3.40;61.42;98506.87;1728307;81;21083;-50
2022/02/02 07:05:12;;;;;;;7.97;1.23;;;;;;;-3.20;61.06;98505.31;1679885;83;21744;-50
2022/02/02 07:07:44;;;;;;;5.27;1.40;;;;;;;-3.09;60.91;98510.88;1695505;83;21582;-51
2022/02/02 07:10:29;;;;;;;5.80;1.23;;;;;;;-2.99;60.76;98505.04;1668726;84;22668;-51
2022/02/02 07:13:05;;;;;;;10.97;3.03;;;;;;;-2.89;60.58;98509.73;1696510;83;20954;-52
2022/02/02 07:15:33;;;;;;;7.23;1.40;;;;;;;-2.80;60.41;98501.67;1688487;83;22100;-51
2022/02/02 07:20:51;;;;;;;8.27;1.93;;;;;;;-2.67;60.00;98503.23;1724262;82;21072;-50
2022/02/02 07:23:30;;;;;;;7.83;2.50;;;;;;;-2.60;59.97;98498.30;1719881;82;21684;-50
2022/02/02 07:28:36;;;;;;;7.47;1.98;;;;;;;-2.48;59.70;98487.58;1684748;84;22486;-51
2022/02/02 07:31:04;;;;;;;5.80;1.57;;;;;;;-2.44;59.66;98491.01;1680506;82;21090;-51
2022/02/02 07:33:32;;;;;;;6.03;1.50;;;;;;;-2.40;59.56;98486.13;1721340;82;21442;-51
2022/02/02 07:36:08;;;;;;;7.50;2.97;;;;;;;-2.36;59.60;98499.20;1719968;82;21144;-50
2022/02/02 07:38:56;;;;;;;8.47;3.53;;;;;;;-2.30;59.53;98495.62;1690481;82;20901;-50
2022/02/02 07:41:30;;;;;;;8.33;1.80;;;;;;;-2.24;59.52;98490.68;1720635;82;21656;-50
2022/02/02 07:44:00;;;;;;;5.20;1.50;;;;;;;-2.19;59.50;98488.83;1674972;84;21091;-52
2022/02/02 07:46:26;;;;;;;5.47;1.70;;;;;;;-2.13;59.31;98488.73;1720114;82;21442;-51
2022/02/02 07:48:52;;;;;;;4.97;1.63;;;;;;;-2.06;59.39;98484.64;1724362;82;21123;-51
2022/02/02 07:51:18;;;;;;;6.53;1.73;;;;;;;-2.00;59.31;98485.84;1724300;82;21096;-51
2022/02/02 07:53:50;;;;;;;9.67;1.47;;;;;;;-1.95;59.31;98482.66;1725672;82;21091;-52
2022/02/02 07:56:23;;;;;;;5.50;1.30;;;;;;;-1.89;59.37;98481.70;1724985;82;21368;-50
2022/02/02 07:58:59;;;;;;;2.70;1.30;;;;;;;-1.80;59.53;98489.88;1723025;82;22239;-51
2022/02/02 08:01:17;;;;;;;8.50;1.97;;;;;;;-1.74;59.47;98477.89;1716919;82;21137;-51
2022/02/02 08:03:53;;;;;;;4.97;1.67;;;;;;;-1.66;59.60;98475.97;1721433;82;21130;-51
2022/02/02 08:10:17;;;;;;;8.37;2.07;;;;;;;-1.46;59.71;98473.81;1791444;79;26812;-51
2022/02/02 08:12:54;;;;;;;8.17;2.13;;;;;;;-1.43;59.70;98475.49;1765724;80;21077;-52
2022/02/02 08:15:15;;;;;;;8.40;1.90;;;;;;;-1.36;59.65;98476.65;1772287;80;21152;-52
2022/02/02 08:17:43;;;;;;;9.70;2.40;;;;;;;-1.28;59.74;98476.52;1767529;79;20882;-52
2022/02/02 08:20:10;;;;;;;7.13;2.37;;;;;;;-1.21;59.66;98475.48;1768241;80;20910;-52
2022/02/02 08:22:39;;;;;;;7.27;2.13;;;;;;;-1.13;59.74;98469.58;1768388;80;20898;-53
2022/02/02 08:25:07;;;;;;;13.87;3.17;;;;;;;-1.06;59.72;98471.17;1766077;80;21479;-52
2022/02/02 08:27:40;;;;;;;9.77;2.33;;;;;;;-0.98;59.76;98469.68;1767822;80;21865;-53
2022/02/02 08:30:09;;;;;;;10.97;2.93;;;;;;;-0.93;59.68;98471.30;1766436;80;20914;-52
2022/02/02 08:32:44;;;;;;;9.50;2.50;;;;;;;-0.83;59.81;98477.25;1768527;80;20906;-53
2022/02/02 08:35:07;;;;;;;10.60;2.90;;;;;;;-0.78;59.84;98472.30;1738222;80;20953;-52
2022/02/02 08:37:36;;;;;;;13.33;6.13;;;;;;;-0.72;59.77;98466.44;1725339;81;20997;-52
2022/02/02 08:42:44;;;;;;;19.13;3.60;;;;;;;-0.63;60.15;98466.23;1734211;81;21172;-52
2022/02/02 08:45:27;;;;;;;9.07;3.13;;;;;;;-0.55;60.15;98463.81;1722964;81;21081;-52
2022/02/02 08:48:01;;;;;;;10.47;4.20;;;;;;;-0.45;59.99;98461.81;1715932;82;21020;-51
2022/02/02 08:53:16;;;;;;;12.58;5.03;;;;;;;-0.30;60.00;98442.05;1714764;82;21207;-52
2022/02/02 08:58:24;;;;;;;19.00;6.87;;;;;;;-0.12;59.98;98448.19;1632835;86;21159;-52
2022/02/02 09:00:50;;;;;;;20.20;6.78;;;;;;;-0.05;60.15;98446.66;1711186;81;21149;-52
2022/02/02 09:06:01;;;;;;;20.17;6.50;;;;;;;0.19;60.07;98448.22;1698172;81;22098;-52
2022/02/02 09:08:30;;;;;;;13.90;5.00;;;;;;;0.26;60.07;98447.14;1691724;81;21312;-52
2022/02/02 09:24:30;;;;;;;9.23;3.37;;;;;;;0.74;59.96;98424.56;1695542;83;21111;-50
2022/02/02 09:35:36;;;;;;;17.13;7.50;;;;;;;0.96;59.91;98406.67;1758287;80;21586;-52
2022/02/02 09:38:02;;;;;;;10.27;4.07;;;;;;;1.00;59.89;98401.70;1759397;80;21499;-52
2022/02/02 09:43:17;;;;;;;5.73;3.33;;;;;;;1.05;59.94;98383.41;1755811;80;21096;-51
2022/02/02 09:45:48;;;;;;;9.97;2.03;;;;;;;1.10;59.94;98380.63;1759123;80;20941;-52
2022/02/02 09:48:24;;;;;;;9.27;1.83;;;;;;;1.13;60.07;98381.38;1757744;80;20993;-51
2022/02/02 09:50:49;;;;;;;8.03;2.23;;;;;;;1.18;60.01;98378.59;1753666;80;21152;-51
2022/02/02 09:53:18;;;;;;;14.53;2.83;;;;;;;1.22;59.96;98370.94;1755660;80;21308;-51
2022/02/02 09:55:55;;;;;;;15.77;3.30;;;;;;;1.28;59.95;98362.77;1754255;80;21049;-51
2022/02/02 09:58:35;;;;;;;6.17;2.50;;;;;;;1.35;60.02;98357.70;1746383;80;21109;-51
2022/02/02 10:01:40;;;;;;;8.83;2.53;;;;;;;1.39;60.09;98361.97;1746873;80;21022;-52
2022/02/02 10:04:04;;;;;;;10.60;3.70;;;;;;;1.45;60.10;98366.19;1753667;80;21612;-50
2022/02/02 10:06:32;;;;;;;12.70;4.73;;;;;;;1.49;60.04;98357.23;1731808;80;21134;-50
2022/02/02 10:14:15;;;;;;;;;;;;;;;1.63;60.01;98340.37;1761659;80;20914;-51
2022/02/02 10:16:46;;;;;;;9.30;3.47;;;;;;;1.68;60.03;98342.88;1752050;80;22048;-50
2022/02/02 10:19:19;;;;;;;9.53;4.43;;;;;;;1.68;59.90;98341.09;1756938;80;21280;-51
2022/02/02 10:21:45;;;;;;;10.03;3.93;;;;;;;1.68;59.94;98341.55;1756347;80;21278;-50
2022/02/02 10:24:11;;;;;;;24.33;9.60;;;;;;;1.68;60.19;98337.58;1753739;80;21097;-52
2022/02/02 10:26:46;;;;;;;19.37;9.83;;;;;;;1.70;60.26;98331.77;1751696;80;21026;-52
2022/02/02 10:29:15;;;;;;;21.42;8.20;;;;;;;1.74;60.13;98333.38;1754193;80;21110;-51
2022/02/02 10:31:48;;;;;;;58.63;21.93;;;;;;;1.76;60.15;98329.75;1749020;80;21607;-49
2022/02/02 10:34:20;;;;;;;36.13;13.28;;;;;;;1.77;60.14;98330.16;1741638;81;21086;-52
2022/02/02 10:37:25;;;;;;;46.40;15.97;;;;;;;1.77;60.22;98326.64;1739003;81;21098;-51
2022/02/02 10:39:49;;;;;;;28.27;11.27;;;;;;;1.77;60.21;98320.02;1743180;81;21468;-52
2022/02/02 10:42:38;;;;;;;27.97;11.67;;;;;;;1.74;60.34;98310.83;1743015;81;21147;-51
2022/02/02 10:45:30;;;;;;;17.40;8.33;;;;;;;1.75;60.49;98309.91;1703350;83;21372;-51
2022/02/02 10:48:03;;;;;;;16.43;5.67;;;;;;;1.76;60.51;98312.97;1743201;81;20931;-52
2022/02/02 10:50:30;;;;;;;12.90;3.87;;;;;;;1.76;60.73;98313.84;1740759;81;20903;-52
2022/02/02 11:06:47;;;;;;;8.33;2.67;;;;;;;1.96;61.18;98282.58;1742511;81;20884;-52
2022/02/02 11:09:00;;;;;;;12.17;3.23;;;;;;;1.97;61.42;98284.31;1736208;81;21097;-51
2022/02/02 11:11:26;;;;;;;9.97;2.97;;;;;;;1.98;61.45;98280.73;1741679;81;20884;-52
2022/02/02 11:14:01;;;;;;;11.00;2.80;;;;;;;2.00;61.55;98280.23;1743888;81;20911;-51
2022/02/02 11:16:31;;;;;;;9.93;2.63;;;;;;;2.01;61.75;98268.69;1704368;83;20950;-50
2022/02/02 11:18:57;;;;;;;8.30;3.13;;;;;;;2.04;61.78;98267.72;1742787;81;20939;-52
2022/02/02 11:21:35;;;;;;;11.93;3.27;;;;;;;2.06;61.89;98273.36;1748455;81;21135;-51
2022/02/02 11:24:16;;;;;;;7.60;2.87;;;;;;;2.10;61.82;98282.08;1744363;81;20903;-51
2022/02/02 11:26:48;;;;;;;10.23;3.00;;;;;;;2.12;61.91;98275.80;1745986;81;20991;-51
2022/02/02 11:29:39;;;;;;;13.40;3.47;;;;;;;2.16;62.04;98269.89;1748459;81;20907;-52
2022/02/02 11:32:07;;;;;;;6.90;2.93;;;;;;;2.19;62.06;98269.33;1733687;81;20928;-51
2022/02/02 11:34:34;;;;;;;12.67;4.23;;;;;;;2.19;62.11;98257.38;1744410;81;21809;-49
2022/02/02 11:37:03;;;;;;;9.70;2.43;;;;;;;2.19;62.16;98249.42;1742273;81;22209;-51
2022/02/02 11:39:57;;;;;;;11.13;3.73;;;;;;;2.17;62.29;98257.90;1741552;81;21050;-50
2022/02/02 11:45:51;;;;;;;35.53;13.80;;;;;;;2.23;62.51;98250.15;1742989;81;21670;-51
2022/02/02 11:48:56;;;;;;;16.33;7.30;;;;;;;2.28;62.47;98250.86;1745433;81;21180;-51
2022/02/02 11:51:45;;;;;;;16.67;6.50;;;;;;;2.34;62.52;98256.37;1741330;81;21192;-50
2022/02/02 11:54:15;;;;;;;14.27;4.00;;;;;;;2.36;62.41;98254.54;1739461;81;21125;-52
2022/02/02 11:57:16;;;;;;;10.50;3.43;;;;;;;2.38;62.47;98252.70;1738749;81;21042;-51
2022/02/02 12:00:04;;;;;;;10.17;3.03;;;;;;;2.36;62.39;98242.13;1742669;81;21018;-52
2022/02/02 12:47:27;;;;;;;38.20;12.80;;;;;;;2.15;63.96;98269.03;1718189;82;21412;-52
2022/02/02 12:56:03;;;;;;;27.60;10.60;;;;;;;2.14;64.23;98273.93;1713401;82;21073;-50
2022/02/02 12:58:00;;;;;;;51.50;20.12;;;;;;;2.13;64.36;98271.33;1715104;82;21099;-51
2022/02/02 13:00:36;;;;;;;37.65;15.00;;;;;;;2.14;64.43;98270.41;1720115;82;20875;-51
2022/02/02 13:02:52;;;;;;;19.83;8.13;;;;;;;2.14;64.48;98270.41;1710235;82;21174;-52
2022/02/02 13:05:24;;;;;;;34.77;13.40;;;;;;;2.13;64.57;98265.56;1714404;82;21041;-50
2022/02/02 13:07:55;;;;;;;20.80;8.67;;;;;;;2.11;64.69;98268.76;1717341;82;20954;-51
2022/02/02 13:10:26;;;;;;;23.13;8.87;;;;;;;2.10;64.73;98280.30;1715160;82;22127;-50
2022/02/02 13:13:07;;;;;;;36.60;15.47;;;;;;;2.09;64.74;98288.31;1718918;82;20899;-52
2022/02/02 13:21:04;;;;;;;8.80;3.80;;;;;;;2.03;65.00;98296.52;1720556;82;21001;-52
2022/02/02 13:24:06;;;;;;;9.43;3.87;;;;;;;1.98;65.12;98302.43;1721174;82;21173;-51
2022/02/02 13:26:53;;;;;;;10.23;3.03;;;;;;;1.93;65.21;98292.00;1715886;81;21050;-51
2022/02/02 13:29:30;;;;;;;15.03;3.10;;;;;;;1.91;65.45;98293.84;1717572;82;21002;-52
2022/02/02 13:32:01;;;;;;;9.60;3.90;;;;;;;1.86;65.56;98294.48;1678215;84;21088;-51
2022/02/02 13:46:17;;;;;;;12.47;3.20;;;;;;;1.68;66.49;98319.01;1735768;81;20915;-50
2022/02/02 13:54:02;;;;;;;16.43;5.33;;;;;;;1.62;67.08;98304.61;1738926;81;21038;-52
2022/02/02 13:59:21;;;;;;;15.80;4.83;;;;;;;1.59;67.28;98307.39;1702535;82;20894;-48
2022/02/02 14:02:07;;;;;;;12.17;3.77;;;;;;;1.59;67.39;98314.02;1740605;80;21981;-48
2022/02/02 14:09:58;;;;;;;12.00;5.20;;;;;;;1.58;67.72;98313.61;1740106;81;21500;-51
2022/02/02 14:31:04;;;;;;;13.47;4.97;;;;;;;1.48;68.24;98312.61;1738635;81;21102;-51
2022/02/02 14:31:23;;;;;;;8.57;3.73;;;;;;;1.45;68.49;98318.46;1737566;81;22019;-51
2022/02/02 14:33:54;;;;;;;9.17;3.90;;;;;;;1.44;68.58;98317.63;1742050;81;21302;-51
2022/02/02 14:36:25;;;;;;;12.97;4.23;;;;;;;1.41;68.65;98309.77;1742443;81;21303;-51
2022/02/02 14:46:35;;;;;;;11.17;3.77;;;;;;;1.36;68.96;98313.02;1742834;81;21053;-49
2022/02/02 14:49:05;;;;;;;9.10;3.60;;;;;;;1.35;69.03;98317.07;1735386;81;21770;-51
2022/02/02 15:29:55;;;;;;;;;;;;;;;0.91;70.59;98335.76;1742566;81;21105;-49
2022/02/02 15:32:10;;;;;;;14.90;5.73;;;;;;;0.88;70.71;98337.17;1739453;81;20246;-48
2022/02/02 15:34:45;;;;;;;10.23;3.90;;;;;;;0.85;70.78;98340.77;1739043;81;21075;-50
2022/02/02 15:39:54;;;;;;;11.70;4.07;;;;;;;0.81;70.90;98345.78;1738602;81;21045;-50
2022/02/02 15:42:27;;;;;;;10.40;3.77;;;;;;;0.80;70.99;98344.50;1735818;81;21102;-51
2022/02/02 15:58:30;;;;;;;17.83;7.30;;;;;;;0.71;71.48;98357.11;1737828;81;20752;-49
2022/02/02 16:06:06;;;;;;;12.83;5.90;;;;;;;0.65;71.65;98341.42;1738646;81;21215;-52
2022/02/02 16:08:29;;;;;;;17.67;4.90;;;;;;;0.63;71.68;98351.19;1735641;81;21034;-50
2022/02/02 16:17:02;;;;;;;14.60;5.40;;;;;;;0.56;71.84;98356.72;1695702;81;21192;-49
2022/02/02 16:18:40;;;;;;;12.70;5.57;;;;;;;0.53;71.91;98370.91;1719782;81;20860;-50
2022/02/02 16:37:39;;;;;;;15.27;6.10;;;;;;;0.44;72.64;98364.56;1688901;83;20964;-49
2022/02/02 16:40:04;;;;;;;18.87;7.85;;;;;;;0.44;72.69;98375.60;1690489;83;21103;-50
2022/02/02 16:45:14;;;;;;;13.30;6.95;;;;;;;0.43;72.83;98378.70;1689573;83;21116;-49
2022/02/02 16:47:41;;;;;;;23.50;8.50;;;;;;;0.44;72.94;98372.50;1689270;83;21056;-50
2022/02/02 16:50:13;;;;;;;19.93;9.83;;;;;;;0.44;73.05;98377.80;1687110;83;21058;-51
2022/02/02 16:52:37;;;;;;;21.17;10.50;;;;;;;0.45;73.09;98376.89;1691044;83;20967;-51
2022/02/02 16:55:11;;;;;;;23.33;9.63;;;;;;;0.46;73.17;98383.92;1692406;83;21439;-50
2022/02/02 17:30:08;;;;;;;20.05;8.03;;;;;;;0.61;74.19;98383.45;1696495;83;21290;-50
2022/02/02 17:35:53;;;;;;;16.37;6.03;;;;;;;0.64;74.29;98375.43;1703855;82;21077;-50
2022/02/02 17:42:53;;;;;;;16.70;6.70;;;;;;;0.70;74.32;98383.63;1707361;82;21309;-51
2022/02/02 17:45:09;;;;;;;13.30;6.60;;;;;;;0.71;74.35;98379.63;1704866;82;21122;-51
2022/02/02 18:20:20;;;;;;;16.35;6.05;;;;;;;0.75;74.73;98374.66;1677603;82;21524;-49
2022/02/02 18:22:48;;;;;;;13.60;6.23;;;;;;;0.77;74.78;98376.39;1719604;82;21147;-48
2022/02/02 18:27:43;;;;;;;14.57;5.80;;;;;;;0.79;74.81;98374.54;1724602;82;21287;-52
2022/02/02 18:33:32;;;;;;;13.97;6.43;;;;;;;0.81;74.90;98385.97;1685315;82;21071;-49
2022/02/02 18:35:18;;;;;;;16.20;6.60;;;;;;;0.81;74.93;98376.69;1694076;82;21080;-49
2022/02/02 18:48:17;;;;;;;13.03;5.80;;;;;;;0.82;75.27;98381.08;1738403;81;21117;-50
2022/02/02 18:56:24;;;;;;;;;;;;;;;0.82;75.51;98387.25;1726606;81;21050;-52
2022/02/02 18:58:47;;;;;;;11.40;5.00;;;;;;;0.82;75.59;98385.92;1741713;80;20464;-51
2022/02/02 19:31:13;;;;;;;16.17;6.97;;;;;;;0.88;76.11;98404.27;1739558;81;21512;-51
2022/02/02 19:52:59;;;;;;;13.83;7.35;;;;;;;0.93;76.52;98399.71;1727166;81;21630;-49
2022/02/02 19:55:23;;;;;;;13.30;6.83;;;;;;;0.95;76.50;98402.29;1725550;81;21636;-51
2022/02/02 20:06:02;;;;;;;12.43;6.20;;;;;;;0.98;76.66;98404.85;1735722;81;21460;-51
2022/02/02 20:08:25;;;;;;;16.93;7.50;;;;;;;0.97;76.66;98403.98;1729450;81;21042;-49
2022/02/02 20:11:01;;;;;;;20.43;8.00;;;;;;;0.98;76.69;98405.72;1727230;81;21101;-52
2022/02/02 20:13:18;;;;;;;13.10;6.67;;;;;;;0.99;76.68;98405.27;1689765;83;21508;-53
2022/02/02 20:15:44;;;;;;;16.53;7.73;;;;;;;1.00;76.74;98410.52;1733978;81;21371;-49
2022/02/02 20:18:11;;;;;;;11.87;6.57;;;;;;;1.00;76.75;98405.22;1731131;81;21933;-50
2022/02/02 20:20:40;;;;;;;21.63;7.90;;;;;;;0.99;76.77;98395.54;1729717;81;20934;-51
2022/02/02 20:23:06;;;;;;;14.67;7.60;;;;;;;1.02;76.77;98399.88;1728672;81;20903;-51
2022/02/02 20:25:35;;;;;;;15.30;6.63;;;;;;;1.02;76.78;98402.05;1732820;81;21142;-51
2022/02/02 20:28:06;;;;;;;15.40;7.93;;;;;;;1.02;76.79;98403.86;1728961;81;20914;-50
2022/02/02 20:30:30;;;;;;;10.93;6.87;;;;;;;1.02;76.79;98400.72;1729935;81;21069;-50
2022/02/02 20:32:57;;;;;;;14.57;7.07;;;;;;;1.02;76.86;98402.53;1726501;81;21140;-50
2022/02/02 20:35:23;;;;;;;17.73;8.43;;;;;;;1.01;76.85;98399.02;1729620;81;21101;-51
2022/02/02 20:37:50;;;;;;;15.60;7.87;;;;;;;1.01;76.87;98403.45;1737932;81;21557;-50
2022/02/02 20:40:16;;;;;;;13.43;7.63;;;;;;;1.02;76.85;98402.05;1737731;81;21078;-54
2022/02/02 21:14:57;;;;;;;14.77;7.90;;;;;;;0.97;77.24;98429.16;1745853;81;21354;-51
2022/02/02 21:17:25;;;;;;;14.10;7.27;;;;;;;0.97;77.28;98435.78;1738692;81;21811;-51
2022/02/02 21:19:59;;;;;;;15.67;6.90;;;;;;;0.98;77.28;98437.97;1740252;81;21081;-54
2022/02/02 21:22:24;;;;;;;13.55;6.67;;;;;;;0.98;77.33;98441.95;1746485;81;21074;-51
2022/02/02 21:25:13;;;;;;;14.73;8.60;;;;;;;0.96;77.34;98445.09;1737589;81;21078;-50
2022/02/02 21:27:43;;;;;;;14.53;7.60;;;;;;;0.95;77.36;98440.25;1739607;81;21140;-50
2022/02/02 21:30:03;;;;;;;13.40;7.73;;;;;;;0.95;77.41;98436.73;1738644;81;22604;-51
2022/02/02 21:32:31;;;;;;;12.70;6.93;;;;;;;0.95;77.43;98442.90;1739963;81;21014;-50
2022/02/02 21:35:04;;;;;;;12.83;6.80;;;;;;;0.96;77.43;98439.80;1735702;81;21093;-54
2022/02/02 21:37:26;;;;;;;17.60;8.20;;;;;;;0.96;77.48;98453.05;1736567;81;21054;-51
2022/02/02 21:40:05;;;;;;;17.17;7.00;;;;;;;0.96;77.50;98453.91;1734774;81;21038;-52
2022/02/02 21:42:22;;;;;;;11.37;5.03;;;;;;;0.95;77.53;98449.98;1731879;81;21197;-53
2022/02/02 21:44:51;;;;;;;16.80;8.30;;;;;;;0.95;77.54;98460.58;1736221;81;21137;-52
2022/02/02 21:47:17;;;;;;;12.57;7.07;;;;;;;0.94;77.60;98461.03;1739810;81;21133;-53
2022/02/02 21:50:53;;;;;;;19.57;7.93;;;;;;;0.97;77.65;98455.66;1775090;78;26462;-53
2022/02/02 21:53:16;;;;;;;15.70;7.53;;;;;;;0.92;77.66;98468.18;1738318;80;21341;-50
2022/02/02 21:55:43;;;;;;;13.20;7.23;;;;;;;0.93;77.67;98463.30;1737546;80;22885;-49
2022/02/02 21:58:10;;;;;;;17.70;7.33;;;;;;;0.93;77.72;98467.73;1724448;82;21471;-51
2022/02/02 22:00:37;;;;;;;13.70;8.27;;;;;;;0.92;77.70;98470.83;1723951;82;21537;-51
2022/02/02 22:03:03;;;;;;;13.93;6.63;;;;;;;0.92;77.75;98469.51;1726141;82;20954;-49
2022/02/02 22:05:30;;;;;;;13.97;8.60;;;;;;;0.92;77.77;98465.53;1730855;81;21093;-52
2022/02/02 22:07:57;;;;;;;14.90;7.43;;;;;;;0.92;77.77;98472.16;1726138;82;22206;-52
2022/02/02 22:10:23;;;;;;;16.10;8.33;;;;;;;0.93;77.79;98471.25;1727863;82;20970;-52
2022/02/02 22:12:49;;;;;;;17.53;9.50;;;;;;;0.93;77.79;98475.67;1725052;81;20997;-51
2022/02/02 22:15:21;;;;;;;18.20;8.63;;;;;;;0.92;77.78;98469.51;1723744;82;21093;-50
2022/02/02 22:17:45;;;;;;;15.70;7.23;;;;;;;0.91;77.81;98477.04;1723414;82;21062;-52